sensor_id;sensor_type;location;lat;lon;timestamp;temperature;humidity
43665;DHT22;29263;48.172;11.484;2024-02-23T00:01:50;7.90;99.90
43665;DHT22;29263;48.172;11.484;2024-02-23T00:04:15;8.00;99.90
43665;DHT22;29263;48.172;11.484;2024-02-23T00:06:41;8.00;99.90
43665;DHT22;29263;48.172;11.484;2024-02-23T00:09:07;7.90;99.90
43665;DHT22;29263;48.172;11.484;2024-02-23T00:11:32;7.80;99.90
43665;DHT22;29263;48.172;11.484;2024-02-23T00:14:05;7.80;99.90
43665;DHT22;29263;48.172;11.484;2024-02-23T00:16:30;7.80;99.90
43665;DHT22;29263;48.172;11.484;2024-02-23T00:18:56;7.70;99.90
43665;DHT22;29263;48.172;11.484;2024-02-23T00:21:22;7.70;99.90
43665;DHT22;29263;48.172;11.484;2024-02-23T00:23:48;7.80;99.90
43665;DHT22;29263;48.172;11.484;2024-02-23T00:26:13;7.80;99.90
43665;DHT22;29263;48.172;11.484;2024-02-23T00:28:39;7.80;99.90
43665;DHT22;29263;48.172;11.484;2024-02-23T00:31:04;7.70;99.90
43665;DHT22;29263;48.172;11.484;2024-02-23T00:33:30;7.70;99.90
43665;DHT22;29263;48.172;11.484;2024-02-23T00:35:56;7.70;99.90
43665;DHT22;29263;48.172;11.484;2024-02-23T00:38:21;7.70;99.90
43665;DHT22;29263;48.172;11.484;2024-02-23T00:40:47;7.80;99.90
43665;DHT22;29263;48.172;11.484;2024-02-23T00:43:12;7.80;99.90
43665;DHT22;29263;48.172;11.484;2024-02-23T00:45:38;7.80;99.90
43665;DHT22;29263;48.172;11.484;2024-02-23T00:48:04;7.80;99.90
43665;DHT22;29263;48.172;11.484;2024-02-23T00:50:29;7.80;99.90
43665;DHT22;29263;48.172;11.484;2024-02-23T00:52:55;7.80;99.90
43665;DHT22;29263;48.172;11.484;2024-02-23T00:55:21;7.70;99.90
43665;DHT22;29263;48.172;11.484;2024-02-23T00:57:46;7.60;99.90
43665;DHT22;29263;48.172;11.484;2024-02-23T01:00:12;7.60;99.90
43665;DHT22;29263;48.172;11.484;2024-02-23T01:02:38;7.60;99.90
43665;DHT22;29263;48.172;11.484;2024-02-23T01:05:04;7.60;99.90
43665;DHT22;29263;48.172;11.484;2024-02-23T01:07:30;7.60;99.90
43665;DHT22;29263;48.172;11.484;2024-02-23T01:09:56;7.70;99.90
43665;DHT22;29263;48.172;11.484;2024-02-23T01:12:22;7.70;99.90
43665;DHT22;29263;48.172;11.484;2024-02-23T01:14:47;7.70;99.90
43665;DHT22;29263;48.172;11.484;2024-02-23T01:17:14;7.70;99.90
43665;DHT22;29263;48.172;11.484;2024-02-23T01:19:41;7.70;99.90
43665;DHT22;29263;48.172;11.484;2024-02-23T01:22:08;7.60;99.90
43665;DHT22;29263;48.172;11.484;2024-02-23T01:24:33;7.60;99.90
43665;DHT22;29263;48.172;11.484;2024-02-23T01:26:59;7.70;99.90
43665;DHT22;29263;48.172;11.484;2024-02-23T01:29:25;7.70;99.90
43665;DHT22;29263;48.172;11.484;2024-02-23T01:31:51;7.70;99.90
43665;DHT22;29263;48.172;11.484;2024-02-23T01:34:17;7.70;99.90
43665;DHT22;29263;48.172;11.484;2024-02-23T01:36:43;7.60;99.90
43665;DHT22;29263;48.172;11.484;2024-02-23T01:39:09;7.60;99.90
43665;DHT22;29263;48.172;11.484;2024-02-23T01:41:35;7.60;99.90
43665;DHT22;29263;48.172;11.484;2024-02-23T01:44:00;7.60;99.90
43665;DHT22;29263;48.172;11.484;2024-02-23T01:46:26;7.60;99.90
43665;DHT22;29263;48.172;11.484;2024-02-23T01:48:52;7.60;99.90
43665;DHT22;29263;48.172;11.484;2024-02-23T01:51:18;7.60;99.90
43665;DHT22;29263;48.172;11.484;2024-02-23T01:53:44;7.50;99.90
43665;DHT22;29263;48.172;11.484;2024-02-23T01:56:11;7.50;99.90
43665;DHT22;29263;48.172;11.484;2024-02-23T01:58:37;7.40;99.90
43665;DHT22;29263;48.172;11.484;2024-02-23T02:01:03;7.40;99.90
43665;DHT22;29263;48.172;11.484;2024-02-23T02:03:29;7.40;99.90
43665;DHT22;29263;48.172;11.484;2024-02-23T02:05:55;7.30;99.90
43665;DHT22;29263;48.172;11.484;2024-02-23T02:08:25;7.30;99.90
43665;DHT22;29263;48.172;11.484;2024-02-23T02:10:50;7.30;99.90
43665;DHT22;29263;48.172;11.484;2024-02-23T02:13:16;7.30;99.90
43665;DHT22;29263;48.172;11.484;2024-02-23T02:15:42;7.20;99.90
43665;DHT22;29263;48.172;11.484;2024-02-23T02:18:09;7.20;99.90
43665;DHT22;29263;48.172;11.484;2024-02-23T02:20:36;7.20;99.90
43665;DHT22;29263;48.172;11.484;2024-02-23T02:23:02;7.20;99.90
43665;DHT22;29263;48.172;11.484;2024-02-23T02:25:28;7.20;99.90
43665;DHT22;29263;48.172;11.484;2024-02-23T02:27:53;7.20;99.90
43665;DHT22;29263;48.172;11.484;2024-02-23T02:30:19;7.10;99.90
43665;DHT22;29263;48.172;11.484;2024-02-23T02:32:45;7.10;99.90
43665;DHT22;29263;48.172;11.484;2024-02-23T02:35:11;7.20;99.90
43665;DHT22;29263;48.172;11.484;2024-02-23T02:37:38;7.10;99.90
43665;DHT22;29263;48.172;11.484;2024-02-23T02:40:04;7.10;99.90
43665;DHT22;29263;48.172;11.484;2024-02-23T02:42:30;7.10;99.90
43665;DHT22;29263;48.172;11.484;2024-02-23T02:44:56;7.10;99.90
43665;DHT22;29263;48.172;11.484;2024-02-23T02:47:22;7.00;99.90
43665;DHT22;29263;48.172;11.484;2024-02-23T02:49:48;7.00;99.90
43665;DHT22;29263;48.172;11.484;2024-02-23T02:52:14;7.00;99.90
43665;DHT22;29263;48.172;11.484;2024-02-23T02:54:39;7.00;99.90
43665;DHT22;29263;48.172;11.484;2024-02-23T02:57:05;7.00;99.90
43665;DHT22;29263;48.172;11.484;2024-02-23T02:59:34;7.00;99.90
43665;DHT22;29263;48.172;11.484;2024-02-23T03:02:00;7.00;99.90
43665;DHT22;29263;48.172;11.484;2024-02-23T03:04:26;7.00;99.90
43665;DHT22;29263;48.172;11.484;2024-02-23T03:06:52;7.00;99.90
43665;DHT22;29263;48.172;11.484;2024-02-23T03:09:18;7.00;99.90
43665;DHT22;29263;48.172;11.484;2024-02-23T03:11:43;6.90;99.90
43665;DHT22;29263;48.172;11.484;2024-02-23T03:14:09;6.90;99.90
43665;DHT22;29263;48.172;11.484;2024-02-23T03:16:35;6.90;99.90
43665;DHT22;29263;48.172;11.484;2024-02-23T03:19:03;6.90;99.90
43665;DHT22;29263;48.172;11.484;2024-02-23T03:21:29;6.90;99.90
43665;DHT22;29263;48.172;11.484;2024-02-23T03:23:54;6.90;99.90
43665;DHT22;29263;48.172;11.484;2024-02-23T03:26:20;6.90;99.90
43665;DHT22;29263;48.172;11.484;2024-02-23T03:28:46;6.90;99.90
43665;DHT22;29263;48.172;11.484;2024-02-23T03:31:11;6.90;99.90
43665;DHT22;29263;48.172;11.484;2024-02-23T03:33:37;6.80;99.90
43665;DHT22;29263;48.172;11.484;2024-02-23T03:36:03;6.90;99.90
43665;DHT22;29263;48.172;11.484;2024-02-23T03:38:29;6.90;99.90
43665;DHT22;29263;48.172;11.484;2024-02-23T03:40:55;6.90;99.90
43665;DHT22;29263;48.172;11.484;2024-02-23T03:43:21;6.90;99.90
43665;DHT22;29263;48.172;11.484;2024-02-23T03:45:47;6.90;99.90
43665;DHT22;29263;48.172;11.484;2024-02-23T03:48:13;6.80;99.90
43665;DHT22;29263;48.172;11.484;2024-02-23T03:50:38;6.80;99.90
43665;DHT22;29263;48.172;11.484;2024-02-23T03:53:04;6.70;99.90
43665;DHT22;29263;48.172;11.484;2024-02-23T03:55:30;6.50;99.90
43665;DHT22;29263;48.172;11.484;2024-02-23T03:57:56;6.40;99.90
43665;DHT22;29263;48.172;11.484;2024-02-23T04:00:21;6.40;99.90
43665;DHT22;29263;48.172;11.484;2024-02-23T04:02:49;6.30;99.90
43665;DHT22;29263;48.172;11.484;2024-02-23T04:05:14;6.20;99.90
43665;DHT22;29263;48.172;11.484;2024-02-23T04:07:40;6.20;99.90
43665;DHT22;29263;48.172;11.484;2024-02-23T04:10:06;6.20;99.90
43665;DHT22;29263;48.172;11.484;2024-02-23T04:12:32;6.20;99.90
43665;DHT22;29263;48.172;11.484;2024-02-23T04:14:58;6.10;99.90
43665;DHT22;29263;48.172;11.484;2024-02-23T04:17:23;6.10;99.90
43665;DHT22;29263;48.172;11.484;2024-02-23T04:19:49;6.10;99.90
43665;DHT22;29263;48.172;11.484;2024-02-23T04:22:14;6.10;99.90
43665;DHT22;29263;48.172;11.484;2024-02-23T04:24:41;6.10;99.90
43665;DHT22;29263;48.172;11.484;2024-02-23T04:27:07;6.10;99.90
43665;DHT22;29263;48.172;11.484;2024-02-23T04:29:34;6.00;99.90
43665;DHT22;29263;48.172;11.484;2024-02-23T04:32:00;6.00;99.90
43665;DHT22;29263;48.172;11.484;2024-02-23T04:34:27;6.00;99.90
43665;DHT22;29263;48.172;11.484;2024-02-23T04:36:52;6.10;99.90
43665;DHT22;29263;48.172;11.484;2024-02-23T04:39:18;6.00;99.90
43665;DHT22;29263;48.172;11.484;2024-02-23T04:41:44;6.00;99.90
43665;DHT22;29263;48.172;11.484;2024-02-23T04:44:09;6.00;99.90
43665;DHT22;29263;48.172;11.484;2024-02-23T04:46:35;5.90;99.90
43665;DHT22;29263;48.172;11.484;2024-02-23T04:49:01;5.90;99.90
43665;DHT22;29263;48.172;11.484;2024-02-23T04:51:27;6.00;99.90
43665;DHT22;29263;48.172;11.484;2024-02-23T04:53:53;6.00;99.90
43665;DHT22;29263;48.172;11.484;2024-02-23T04:56:18;6.00;99.90
43665;DHT22;29263;48.172;11.484;2024-02-23T04:58:44;5.90;99.90
43665;DHT22;29263;48.172;11.484;2024-02-23T05:01:10;5.90;99.90
43665;DHT22;29263;48.172;11.484;2024-02-23T05:03:36;5.90;99.90
43665;DHT22;29263;48.172;11.484;2024-02-23T05:06:03;5.80;99.90
43665;DHT22;29263;48.172;11.484;2024-02-23T05:08:29;5.80;99.90
43665;DHT22;29263;48.172;11.484;2024-02-23T05:10:56;5.80;99.90
43665;DHT22;29263;48.172;11.484;2024-02-23T05:13:22;5.70;99.90
43665;DHT22;29263;48.172;11.484;2024-02-23T05:15:47;5.60;99.90
43665;DHT22;29263;48.172;11.484;2024-02-23T05:18:13;5.50;99.90
43665;DHT22;29263;48.172;11.484;2024-02-23T05:20:39;5.50;99.90
43665;DHT22;29263;48.172;11.484;2024-02-23T05:23:05;5.40;99.90
43665;DHT22;29263;48.172;11.484;2024-02-23T05:25:30;5.40;99.90
43665;DHT22;29263;48.172;11.484;2024-02-23T05:27:56;5.40;99.90
43665;DHT22;29263;48.172;11.484;2024-02-23T05:30:21;5.50;99.90
43665;DHT22;29263;48.172;11.484;2024-02-23T05:32:47;5.40;99.90
43665;DHT22;29263;48.172;11.484;2024-02-23T05:35:13;5.30;99.90
43665;DHT22;29263;48.172;11.484;2024-02-23T05:37:39;5.40;99.90
43665;DHT22;29263;48.172;11.484;2024-02-23T05:40:05;5.40;99.90
43665;DHT22;29263;48.172;11.484;2024-02-23T05:42:35;5.40;99.90
43665;DHT22;29263;48.172;11.484;2024-02-23T05:45:01;5.40;99.90
43665;DHT22;29263;48.172;11.484;2024-02-23T05:47:27;5.40;99.90
43665;DHT22;29263;48.172;11.484;2024-02-23T05:49:53;5.40;99.90
43665;DHT22;29263;48.172;11.484;2024-02-23T05:52:19;5.50;99.90
43665;DHT22;29263;48.172;11.484;2024-02-23T05:54:44;5.40;99.90
43665;DHT22;29263;48.172;11.484;2024-02-23T05:57:10;5.40;99.90
43665;DHT22;29263;48.172;11.484;2024-02-23T05:59:35;5.40;99.90
43665;DHT22;29263;48.172;11.484;2024-02-23T06:02:01;5.40;99.90
43665;DHT22;29263;48.172;11.484;2024-02-23T06:04:27;5.30;99.90
43665;DHT22;29263;48.172;11.484;2024-02-23T06:06:53;5.40;99.90
43665;DHT22;29263;48.172;11.484;2024-02-23T06:09:18;5.30;99.90
43665;DHT22;29263;48.172;11.484;2024-02-23T06:11:44;5.30;99.90
43665;DHT22;29263;48.172;11.484;2024-02-23T06:14:10;5.40;99.90
43665;DHT22;29263;48.172;11.484;2024-02-23T06:16:36;5.50;99.90
43665;DHT22;29263;48.172;11.484;2024-02-23T06:19:02;5.50;99.90
43665;DHT22;29263;48.172;11.484;2024-02-23T06:21:29;5.50;99.90
43665;DHT22;29263;48.172;11.484;2024-02-23T06:23:54;5.50;99.90
43665;DHT22;29263;48.172;11.484;2024-02-23T06:26:21;5.40;99.90
43665;DHT22;29263;48.172;11.484;2024-02-23T06:28:46;5.40;99.90
43665;DHT22;29263;48.172;11.484;2024-02-23T06:31:14;5.50;99.90
43665;DHT22;29263;48.172;11.484;2024-02-23T06:33:40;5.40;99.90
43665;DHT22;29263;48.172;11.484;2024-02-23T06:36:06;5.40;99.90
43665;DHT22;29263;48.172;11.484;2024-02-23T06:38:33;5.50;99.90
43665;DHT22;29263;48.172;11.484;2024-02-23T06:40:59;5.40;99.90
43665;DHT22;29263;48.172;11.484;2024-02-23T06:43:24;5.50;99.90
43665;DHT22;29263;48.172;11.484;2024-02-23T06:45:50;5.40;99.90
43665;DHT22;29263;48.172;11.484;2024-02-23T06:48:16;5.50;99.90
43665;DHT22;29263;48.172;11.484;2024-02-23T06:50:42;5.50;99.90
43665;DHT22;29263;48.172;11.484;2024-02-23T06:53:08;5.50;99.90
43665;DHT22;29263;48.172;11.484;2024-02-23T06:55:34;5.40;99.90
43665;DHT22;29263;48.172;11.484;2024-02-23T06:58:00;5.40;99.90
43665;DHT22;29263;48.172;11.484;2024-02-23T07:00:26;5.40;99.90
43665;DHT22;29263;48.172;11.484;2024-02-23T07:02:52;5.40;99.90
43665;DHT22;29263;48.172;11.484;2024-02-23T07:05:17;5.40;99.90
43665;DHT22;29263;48.172;11.484;2024-02-23T07:07:43;5.40;99.90
43665;DHT22;29263;48.172;11.484;2024-02-23T07:10:09;5.40;99.90
43665;DHT22;29263;48.172;11.484;2024-02-23T07:12:36;5.40;99.90
43665;DHT22;29263;48.172;11.484;2024-02-23T07:15:01;5.30;99.90
43665;DHT22;29263;48.172;11.484;2024-02-23T07:17:27;5.30;99.90
43665;DHT22;29263;48.172;11.484;2024-02-23T07:19:53;5.30;99.90
43665;DHT22;29263;48.172;11.484;2024-02-23T07:22:19;5.40;99.90
43665;DHT22;29263;48.172;11.484;2024-02-23T07:24:46;5.40;99.90
43665;DHT22;29263;48.172;11.484;2024-02-23T07:27:12;5.40;99.90
43665;DHT22;29263;48.172;11.484;2024-02-23T07:29:38;5.40;99.90
43665;DHT22;29263;48.172;11.484;2024-02-23T07:32:03;5.50;99.90
43665;DHT22;29263;48.172;11.484;2024-02-23T07:34:30;5.50;99.90
43665;DHT22;29263;48.172;11.484;2024-02-23T07:36:56;5.50;99.90
43665;DHT22;29263;48.172;11.484;2024-02-23T07:39:21;5.50;99.90
43665;DHT22;29263;48.172;11.484;2024-02-23T07:41:47;5.50;99.90
43665;DHT22;29263;48.172;11.484;2024-02-23T07:44:13;5.50;99.90
43665;DHT22;29263;48.172;11.484;2024-02-23T07:46:39;5.50;99.90
43665;DHT22;29263;48.172;11.484;2024-02-23T07:49:05;5.50;99.90
43665;DHT22;29263;48.172;11.484;2024-02-23T07:51:31;5.50;99.90
43665;DHT22;29263;48.172;11.484;2024-02-23T07:53:57;5.50;99.90
43665;DHT22;29263;48.172;11.484;2024-02-23T07:56:23;5.50;99.90
43665;DHT22;29263;48.172;11.484;2024-02-23T07:58:49;5.50;99.90
43665;DHT22;29263;48.172;11.484;2024-02-23T08:01:14;5.60;99.90
43665;DHT22;29263;48.172;11.484;2024-02-23T08:03:40;5.60;99.90
43665;DHT22;29263;48.172;11.484;2024-02-23T08:06:06;5.70;99.90
43665;DHT22;29263;48.172;11.484;2024-02-23T08:08:32;5.70;99.90
43665;DHT22;29263;48.172;11.484;2024-02-23T08:11:01;5.70;99.90
43665;DHT22;29263;48.172;11.484;2024-02-23T08:13:27;5.80;99.90
43665;DHT22;29263;48.172;11.484;2024-02-23T08:15:53;5.80;99.90
43665;DHT22;29263;48.172;11.484;2024-02-23T08:18:18;5.80;99.90
43665;DHT22;29263;48.172;11.484;2024-02-23T08:20:44;5.80;99.90
43665;DHT22;29263;48.172;11.484;2024-02-23T08:23:09;5.90;99.90
43665;DHT22;29263;48.172;11.484;2024-02-23T08:25:36;5.90;99.90
43665;DHT22;29263;48.172;11.484;2024-02-23T08:28:02;6.00;99.90
43665;DHT22;29263;48.172;11.484;2024-02-23T08:30:28;6.00;99.90
43665;DHT22;29263;48.172;11.484;2024-02-23T08:32:53;6.00;99.90
43665;DHT22;29263;48.172;11.484;2024-02-23T08:35:21;6.00;99.90
43665;DHT22;29263;48.172;11.484;2024-02-23T08:37:46;6.00;99.90
43665;DHT22;29263;48.172;11.484;2024-02-23T08:40:12;6.10;99.90
43665;DHT22;29263;48.172;11.484;2024-02-23T08:42:38;6.20;99.90
43665;DHT22;29263;48.172;11.484;2024-02-23T08:45:04;6.30;99.90
43665;DHT22;29263;48.172;11.484;2024-02-23T08:47:29;6.40;99.90
43665;DHT22;29263;48.172;11.484;2024-02-23T08:49:58;6.50;99.90
43665;DHT22;29263;48.172;11.484;2024-02-23T08:52:24;6.50;99.90
43665;DHT22;29263;48.172;11.484;2024-02-23T08:54:51;6.50;99.90
43665;DHT22;29263;48.172;11.484;2024-02-23T08:57:17;6.50;99.90
43665;DHT22;29263;48.172;11.484;2024-02-23T08:59:47;6.50;99.90
43665;DHT22;29263;48.172;11.484;2024-02-23T09:02:13;6.60;99.90
43665;DHT22;29263;48.172;11.484;2024-02-23T09:04:38;6.60;99.90
43665;DHT22;29263;48.172;11.484;2024-02-23T09:07:05;6.50;99.90
43665;DHT22;29263;48.172;11.484;2024-02-23T09:09:31;6.50;99.90
43665;DHT22;29263;48.172;11.484;2024-02-23T09:11:56;6.40;99.90
43665;DHT22;29263;48.172;11.484;2024-02-23T09:14:22;6.40;99.90
43665;DHT22;29263;48.172;11.484;2024-02-23T09:16:48;6.40;99.90
43665;DHT22;29263;48.172;11.484;2024-02-23T09:19:16;6.40;99.90
43665;DHT22;29263;48.172;11.484;2024-02-23T09:21:42;6.40;99.90
43665;DHT22;29263;48.172;11.484;2024-02-23T09:24:08;6.40;99.90
43665;DHT22;29263;48.172;11.484;2024-02-23T09:26:33;6.30;99.90
43665;DHT22;29263;48.172;11.484;2024-02-23T09:28:59;6.30;99.90
43665;DHT22;29263;48.172;11.484;2024-02-23T09:31:24;6.40;99.90
43665;DHT22;29263;48.172;11.484;2024-02-23T09:33:51;6.30;99.90
43665;DHT22;29263;48.172;11.484;2024-02-23T09:36:17;6.30;99.90
43665;DHT22;29263;48.172;11.484;2024-02-23T09:38:43;6.30;99.90
43665;DHT22;29263;48.172;11.484;2024-02-23T09:41:18;6.30;99.90
43665;DHT22;29263;48.172;11.484;2024-02-23T09:43:44;6.30;99.90
43665;DHT22;29263;48.172;11.484;2024-02-23T09:46:12;6.30;99.90
43665;DHT22;29263;48.172;11.484;2024-02-23T09:48:38;6.30;99.90
43665;DHT22;29263;48.172;11.484;2024-02-23T09:51:05;6.30;99.90
43665;DHT22;29263;48.172;11.484;2024-02-23T09:53:32;6.30;99.90
43665;DHT22;29263;48.172;11.484;2024-02-23T09:55:59;6.40;99.90
43665;DHT22;29263;48.172;11.484;2024-02-23T09:58:26;6.40;99.90
43665;DHT22;29263;48.172;11.484;2024-02-23T10:00:56;6.50;99.90
43665;DHT22;29263;48.172;11.484;2024-02-23T10:03:25;6.40;99.90
43665;DHT22;29263;48.172;11.484;2024-02-23T10:05:51;6.40;99.90
43665;DHT22;29263;48.172;11.484;2024-02-23T10:08:17;6.50;99.90
43665;DHT22;29263;48.172;11.484;2024-02-23T10:10:46;6.50;99.90
43665;DHT22;29263;48.172;11.484;2024-02-23T10:13:12;6.50;99.90
43665;DHT22;29263;48.172;11.484;2024-02-23T10:15:37;6.60;99.90
43665;DHT22;29263;48.172;11.484;2024-02-23T10:18:04;6.60;99.90
43665;DHT22;29263;48.172;11.484;2024-02-23T10:20:30;6.70;99.90
43665;DHT22;29263;48.172;11.484;2024-02-23T10:22:56;6.70;99.90
43665;DHT22;29263;48.172;11.484;2024-02-23T10:25:22;6.80;99.90
43665;DHT22;29263;48.172;11.484;2024-02-23T10:27:48;6.80;99.90
43665;DHT22;29263;48.172;11.484;2024-02-23T10:30:14;6.80;99.90
43665;DHT22;29263;48.172;11.484;2024-02-23T10:32:42;6.90;99.90
43665;DHT22;29263;48.172;11.484;2024-02-23T10:35:15;6.80;99.90
43665;DHT22;29263;48.172;11.484;2024-02-23T10:37:48;6.80;99.90
43665;DHT22;29263;48.172;11.484;2024-02-23T10:40:16;6.90;99.90
43665;DHT22;29263;48.172;11.484;2024-02-23T10:42:44;6.90;99.90
43665;DHT22;29263;48.172;11.484;2024-02-23T10:45:14;7.10;99.90
43665;DHT22;29263;48.172;11.484;2024-02-23T10:47:41;7.10;99.90
43665;DHT22;29263;48.172;11.484;2024-02-23T10:50:08;7.10;99.90
43665;DHT22;29263;48.172;11.484;2024-02-23T10:52:35;7.10;99.90
43665;DHT22;29263;48.172;11.484;2024-02-23T10:55:02;7.10;99.90
43665;DHT22;29263;48.172;11.484;2024-02-23T10:57:31;7.10;99.90
43665;DHT22;29263;48.172;11.484;2024-02-23T10:59:58;7.10;99.90
43665;DHT22;29263;48.172;11.484;2024-02-23T11:02:25;7.10;99.90
43665;DHT22;29263;48.172;11.484;2024-02-23T11:04:55;7.10;99.90
43665;DHT22;29263;48.172;11.484;2024-02-23T11:07:22;7.10;99.90
43665;DHT22;29263;48.172;11.484;2024-02-23T11:10:02;7.00;99.90
43665;DHT22;29263;48.172;11.484;2024-02-23T11:12:30;7.00;99.90
43665;DHT22;29263;48.172;11.484;2024-02-23T11:14:59;7.10;99.90
43665;DHT22;29263;48.172;11.484;2024-02-23T11:17:30;7.10;99.90
43665;DHT22;29263;48.172;11.484;2024-02-23T11:19:56;7.20;99.90
43665;DHT22;29263;48.172;11.484;2024-02-23T11:22:26;7.20;99.90
43665;DHT22;29263;48.172;11.484;2024-02-23T11:24:53;7.10;99.90
43665;DHT22;29263;48.172;11.484;2024-02-23T11:27:18;7.00;99.90
43665;DHT22;29263;48.172;11.484;2024-02-23T11:29:47;7.00;99.90
43665;DHT22;29263;48.172;11.484;2024-02-23T11:32:16;7.00;99.90
43665;DHT22;29263;48.172;11.484;2024-02-23T11:34:57;7.00;99.90
43665;DHT22;29263;48.172;11.484;2024-02-23T11:37:22;6.90;99.90
43665;DHT22;29263;48.172;11.484;2024-02-23T11:39:48;6.90;99.90
43665;DHT22;29263;48.172;11.484;2024-02-23T11:42:14;6.90;99.90
43665;DHT22;29263;48.172;11.484;2024-02-23T11:44:40;6.80;99.90
43665;DHT22;29263;48.172;11.484;2024-02-23T11:47:07;6.90;99.90
43665;DHT22;29263;48.172;11.484;2024-02-23T11:49:33;6.90;99.90
43665;DHT22;29263;48.172;11.484;2024-02-23T11:51:58;6.80;99.90
43665;DHT22;29263;48.172;11.484;2024-02-23T11:54:24;6.70;99.90
43665;DHT22;29263;48.172;11.484;2024-02-23T11:56:50;6.80;99.90
43665;DHT22;29263;48.172;11.484;2024-02-23T11:59:19;6.80;99.90
43665;DHT22;29263;48.172;11.484;2024-02-23T12:01:46;6.90;99.90
43665;DHT22;29263;48.172;11.484;2024-02-23T12:04:13;6.90;99.90
43665;DHT22;29263;48.172;11.484;2024-02-23T12:06:40;6.80;99.90
43665;DHT22;29263;48.172;11.484;2024-02-23T12:09:06;6.70;99.90
43665;DHT22;29263;48.172;11.484;2024-02-23T12:11:32;6.60;99.90
43665;DHT22;29263;48.172;11.484;2024-02-23T12:13:58;6.50;99.90
43665;DHT22;29263;48.172;11.484;2024-02-23T12:16:23;6.60;99.90
43665;DHT22;29263;48.172;11.484;2024-02-23T12:18:54;6.50;99.90
43665;DHT22;29263;48.172;11.484;2024-02-23T12:21:21;6.50;99.90
43665;DHT22;29263;48.172;11.484;2024-02-23T12:23:49;6.40;99.90
43665;DHT22;29263;48.172;11.484;2024-02-23T12:26:17;6.40;99.90
43665;DHT22;29263;48.172;11.484;2024-02-23T12:28:43;6.40;99.90
43665;DHT22;29263;48.172;11.484;2024-02-23T12:31:09;6.40;99.90
43665;DHT22;29263;48.172;11.484;2024-02-23T12:33:39;6.40;99.90
43665;DHT22;29263;48.172;11.484;2024-02-23T12:36:06;6.50;99.90
43665;DHT22;29263;48.172;11.484;2024-02-23T12:38:32;6.50;99.90
43665;DHT22;29263;48.172;11.484;2024-02-23T12:41:00;6.40;99.90
43665;DHT22;29263;48.172;11.484;2024-02-23T12:43:26;6.40;99.90
43665;DHT22;29263;48.172;11.484;2024-02-23T12:45:53;6.50;99.90
43665;DHT22;29263;48.172;11.484;2024-02-23T12:48:20;6.50;99.90
43665;DHT22;29263;48.172;11.484;2024-02-23T12:50:46;6.50;99.90
43665;DHT22;29263;48.172;11.484;2024-02-23T12:53:34;6.40;99.90
43665;DHT22;29263;48.172;11.484;2024-02-23T12:56:06;6.40;99.90
43665;DHT22;29263;48.172;11.484;2024-02-23T12:58:33;6.40;99.90
43665;DHT22;29263;48.172;11.484;2024-02-23T13:00:59;6.40;99.90
43665;DHT22;29263;48.172;11.484;2024-02-23T13:03:26;6.30;99.90
43665;DHT22;29263;48.172;11.484;2024-02-23T13:06:01;6.20;99.90
43665;DHT22;29263;48.172;11.484;2024-02-23T13:08:28;6.30;99.90
43665;DHT22;29263;48.172;11.484;2024-02-23T13:10:54;6.20;99.90
43665;DHT22;29263;48.172;11.484;2024-02-23T13:13:21;6.20;99.90
43665;DHT22;29263;48.172;11.484;2024-02-23T13:15:48;6.30;99.90
43665;DHT22;29263;48.172;11.484;2024-02-23T13:18:14;6.20;99.90
43665;DHT22;29263;48.172;11.484;2024-02-23T13:20:40;6.20;99.90
43665;DHT22;29263;48.172;11.484;2024-02-23T13:23:10;6.30;99.90
43665;DHT22;29263;48.172;11.484;2024-02-23T13:25:39;6.30;99.90
43665;DHT22;29263;48.172;11.484;2024-02-23T13:28:06;6.20;99.90
43665;DHT22;29263;48.172;11.484;2024-02-23T13:30:32;6.20;99.90
43665;DHT22;29263;48.172;11.484;2024-02-23T13:32:58;6.20;99.90
43665;DHT22;29263;48.172;11.484;2024-02-23T13:35:23;6.20;99.90
43665;DHT22;29263;48.172;11.484;2024-02-23T13:37:49;6.20;99.90
43665;DHT22;29263;48.172;11.484;2024-02-23T13:40:15;6.20;99.90
43665;DHT22;29263;48.172;11.484;2024-02-23T13:42:41;6.20;99.90
43665;DHT22;29263;48.172;11.484;2024-02-23T13:45:07;6.20;99.90
43665;DHT22;29263;48.172;11.484;2024-02-23T13:47:34;6.20;99.90
43665;DHT22;29263;48.172;11.484;2024-02-23T13:50:01;6.20;99.90
43665;DHT22;29263;48.172;11.484;2024-02-23T13:52:27;6.20;99.90
43665;DHT22;29263;48.172;11.484;2024-02-23T13:54:53;6.30;99.90
43665;DHT22;29263;48.172;11.484;2024-02-23T13:57:19;6.30;99.90
43665;DHT22;29263;48.172;11.484;2024-02-23T13:59:44;6.30;99.90
43665;DHT22;29263;48.172;11.484;2024-02-23T14:02:10;6.30;99.90
43665;DHT22;29263;48.172;11.484;2024-02-23T14:04:36;6.20;99.90
43665;DHT22;29263;48.172;11.484;2024-02-23T14:07:01;6.20;99.90
43665;DHT22;29263;48.172;11.484;2024-02-23T14:09:27;6.20;99.90
43665;DHT22;29263;48.172;11.484;2024-02-23T14:11:53;6.10;99.90
43665;DHT22;29263;48.172;11.484;2024-02-23T14:14:19;6.10;99.90
43665;DHT22;29263;48.172;11.484;2024-02-23T14:16:45;6.00;99.90
43665;DHT22;29263;48.172;11.484;2024-02-23T14:19:11;5.90;99.90
43665;DHT22;29263;48.172;11.484;2024-02-23T14:21:36;5.90;99.90
43665;DHT22;29263;48.172;11.484;2024-02-23T14:24:03;5.90;99.90
43665;DHT22;29263;48.172;11.484;2024-02-23T14:26:29;5.90;99.90
43665;DHT22;29263;48.172;11.484;2024-02-23T14:28:55;5.90;99.90
43665;DHT22;29263;48.172;11.484;2024-02-23T14:31:20;5.90;99.90
43665;DHT22;29263;48.172;11.484;2024-02-23T14:33:46;5.90;99.90
43665;DHT22;29263;48.172;11.484;2024-02-23T14:36:16;5.90;99.90
43665;DHT22;29263;48.172;11.484;2024-02-23T14:38:42;6.00;99.90
43665;DHT22;29263;48.172;11.484;2024-02-23T14:41:08;6.00;99.90
43665;DHT22;29263;48.172;11.484;2024-02-23T14:43:35;5.80;99.90
43665;DHT22;29263;48.172;11.484;2024-02-23T14:46:01;5.80;99.90
43665;DHT22;29263;48.172;11.484;2024-02-23T14:48:27;5.80;99.90
43665;DHT22;29263;48.172;11.484;2024-02-23T14:50:52;5.80;99.90
43665;DHT22;29263;48.172;11.484;2024-02-23T14:53:18;5.70;99.90
43665;DHT22;29263;48.172;11.484;2024-02-23T14:55:44;5.70;99.90
43665;DHT22;29263;48.172;11.484;2024-02-23T14:58:09;5.70;99.90
43665;DHT22;29263;48.172;11.484;2024-02-23T15:00:35;5.70;99.90
43665;DHT22;29263;48.172;11.484;2024-02-23T15:03:02;5.70;99.90
43665;DHT22;29263;48.172;11.484;2024-02-23T15:05:28;5.70;99.90
43665;DHT22;29263;48.172;11.484;2024-02-23T15:07:53;5.70;99.90
43665;DHT22;29263;48.172;11.484;2024-02-23T15:10:19;5.70;99.90
43665;DHT22;29263;48.172;11.484;2024-02-23T15:12:45;5.60;99.90
43665;DHT22;29263;48.172;11.484;2024-02-23T15:15:11;5.60;99.90
43665;DHT22;29263;48.172;11.484;2024-02-23T15:17:37;5.60;99.90
43665;DHT22;29263;48.172;11.484;2024-02-23T15:20:02;5.60;99.90
43665;DHT22;29263;48.172;11.484;2024-02-23T15:22:29;5.60;99.90
43665;DHT22;29263;48.172;11.484;2024-02-23T15:24:55;5.60;99.90